sensor_id;sensor_type;location;lat;lon;timestamp;P1;durP1;ratioP1;P2;durP2;ratioP2
9128;SDS011;4599;50.906;6.786;2023-02-28T00:03:04;5.67;;;1.90;;
9128;SDS011;4599;50.906;6.786;2023-02-28T00:07:06;3.03;;;1.80;;
9128;SDS011;4599;50.906;6.786;2023-02-28T00:11:08;4.27;;;2.10;;
9128;SDS011;4599;50.906;6.786;2023-02-28T00:15:11;4.23;;;1.93;;
9128;SDS011;4599;50.906;6.786;2023-02-28T00:19:14;2.60;;;2.03;;
9128;SDS011;4599;50.906;6.786;2023-02-28T00:23:15;3.47;;;1.80;;
9128;SDS011;4599;50.906;6.786;2023-02-28T00:27:17;3.27;;;1.87;;
9128;SDS011;4599;50.906;6.786;2023-02-28T00:31:18;4.00;;;2.10;;
9128;SDS011;4599;50.906;6.786;2023-02-28T00:35:21;2.80;;;1.77;;
9128;SDS011;4599;50.906;6.786;2023-02-28T00:39:22;2.93;;;2.00;;
9128;SDS011;4599;50.906;6.786;2023-02-28T00:43:24;8.47;;;2.10;;
9128;SDS011;4599;50.906;6.786;2023-02-28T00:47:25;3.20;;;1.90;;
9128;SDS011;4599;50.906;6.786;2023-02-28T00:51:28;3.10;;;1.90;;
9128;SDS011;4599;50.906;6.786;2023-02-28T00:55:30;2.37;;;1.63;;
9128;SDS011;4599;50.906;6.786;2023-02-28T00:59:31;2.27;;;1.73;;
9128;SDS011;4599;50.906;6.786;2023-02-28T01:03:33;2.13;;;1.60;;
9128;SDS011;4599;50.906;6.786;2023-02-28T01:07:36;3.50;;;1.83;;
9128;SDS011;4599;50.906;6.786;2023-02-28T01:11:37;5.10;;;2.07;;
9128;SDS011;4599;50.906;6.786;2023-02-28T01:15:39;2.83;;;1.87;;
9128;SDS011;4599;50.906;6.786;2023-02-28T01:19:44;2.43;;;1.80;;
9128;SDS011;4599;50.906;6.786;2023-02-28T01:23:47;4.77;;;2.10;;
9128;SDS011;4599;50.906;6.786;2023-02-28T01:27:49;2.93;;;1.80;;
9128;SDS011;4599;50.906;6.786;2023-02-28T01:31:51;4.20;;;1.90;;
9128;SDS011;4599;50.906;6.786;2023-02-28T01:35:57;3.03;;;1.90;;
9128;SDS011;4599;50.906;6.786;2023-02-28T01:40:00;4.00;;;1.70;;
9128;SDS011;4599;50.906;6.786;2023-02-28T01:44:02;3.03;;;2.00;;
9128;SDS011;4599;50.906;6.786;2023-02-28T01:48:06;3.43;;;1.67;;
9128;SDS011;4599;50.906;6.786;2023-02-28T01:52:09;4.57;;;1.60;;
9128;SDS011;4599;50.906;6.786;2023-02-28T01:56:15;2.97;;;2.00;;
9128;SDS011;4599;50.906;6.786;2023-02-28T02:00:23;4.60;;;1.77;;
9128;SDS011;4599;50.906;6.786;2023-02-28T02:04:26;2.17;;;1.70;;
9128;SDS011;4599;50.906;6.786;2023-02-28T02:08:32;2.63;;;1.80;;
9128;SDS011;4599;50.906;6.786;2023-02-28T02:12:40;2.13;;;1.53;;
9128;SDS011;4599;50.906;6.786;2023-02-28T02:16:57;5.07;;;1.90;;
9128;SDS011;4599;50.906;6.786;2023-02-28T02:21:33;5.57;;;1.90;;
9128;SDS011;4599;50.906;6.786;2023-02-28T02:25:49;3.00;;;1.80;;
9128;SDS011;4599;50.906;6.786;2023-02-28T02:34:50;2.87;;;1.73;;
9128;SDS011;4599;50.906;6.786;2023-02-28T02:38:58;2.27;;;1.80;;
9128;SDS011;4599;50.906;6.786;2023-02-28T02:43:07;3.43;;;1.67;;
9128;SDS011;4599;50.906;6.786;2023-02-28T02:47:13;2.80;;;1.80;;
9128;SDS011;4599;50.906;6.786;2023-02-28T02:51:20;3.07;;;1.60;;
9128;SDS011;4599;50.906;6.786;2023-02-28T02:55:24;3.87;;;1.60;;
9128;SDS011;4599;50.906;6.786;2023-02-28T02:59:26;3.83;;;1.83;;
9128;SDS011;4599;50.906;6.786;2023-02-28T03:03:30;2.23;;;1.67;;
9128;SDS011;4599;50.906;6.786;2023-02-28T03:07:35;3.23;;;1.70;;
9128;SDS011;4599;50.906;6.786;2023-02-28T03:11:40;3.60;;;1.70;;
9128;SDS011;4599;50.906;6.786;2023-02-28T03:15:46;2.70;;;1.63;;
9128;SDS011;4599;50.906;6.786;2023-02-28T03:20:01;3.70;;;1.50;;
9128;SDS011;4599;50.906;6.786;2023-02-28T03:24:10;4.60;;;1.80;;
9128;SDS011;4599;50.906;6.786;2023-02-28T03:28:22;2.80;;;1.80;;
9128;SDS011;4599;50.906;6.786;2023-02-28T03:32:32;2.43;;;1.50;;
9128;SDS011;4599;50.906;6.786;2023-02-28T03:36:36;1.90;;;1.70;;
9128;SDS011;4599;50.906;6.786;2023-02-28T03:40:42;2.87;;;1.60;;
9128;SDS011;4599;50.906;6.786;2023-02-28T03:44:49;2.90;;;1.80;;
9128;SDS011;4599;50.906;6.786;2023-02-28T03:48:55;3.10;;;1.97;;
9128;SDS011;4599;50.906;6.786;2023-02-28T03:53:02;2.77;;;1.80;;
9128;SDS011;4599;50.906;6.786;2023-02-28T03:57:10;2.23;;;1.63;;
9128;SDS011;4599;50.906;6.786;2023-02-28T04:01:17;4.33;;;2.10;;
9128;SDS011;4599;50.906;6.786;2023-02-28T04:05:22;3.37;;;1.90;;
9128;SDS011;4599;50.906;6.786;2023-02-28T04:09:24;3.73;;;1.80;;
9128;SDS011;4599;50.906;6.786;2023-02-28T04:13:27;4.40;;;2.00;;
9128;SDS011;4599;50.906;6.786;2023-02-28T04:17:28;3.47;;;1.73;;
9128;SDS011;4599;50.906;6.786;2023-02-28T04:21:30;3.27;;;1.87;;
9128;SDS011;4599;50.906;6.786;2023-02-28T04:25:33;4.80;;;2.27;;
9128;SDS011;4599;50.906;6.786;2023-02-28T04:29:38;2.43;;;1.90;;
9128;SDS011;4599;50.906;6.786;2023-02-28T04:33:39;2.90;;;2.10;;
9128;SDS011;4599;50.906;6.786;2023-02-28T04:37:41;2.90;;;2.13;;
9128;SDS011;4599;50.906;6.786;2023-02-28T04:41:44;4.57;;;2.40;;
9128;SDS011;4599;50.906;6.786;2023-02-28T04:45:47;3.80;;;1.90;;
9128;SDS011;4599;50.906;6.786;2023-02-28T04:49:49;3.67;;;2.23;;
9128;SDS011;4599;50.906;6.786;2023-02-28T04:53:50;3.27;;;2.10;;
9128;SDS011;4599;50.906;6.786;2023-02-28T04:57:52;5.07;;;2.77;;
9128;SDS011;4599;50.906;6.786;2023-02-28T05:01:55;5.40;;;2.50;;
9128;SDS011;4599;50.906;6.786;2023-02-28T05:05:57;5.43;;;2.83;;
9128;SDS011;4599;50.906;6.786;2023-02-28T05:09:58;4.37;;;2.50;;
9128;SDS011;4599;50.906;6.786;2023-02-28T05:13:59;7.10;;;3.30;;
9128;SDS011;4599;50.906;6.786;2023-02-28T05:18:02;11.27;;;3.97;;
9128;SDS011;4599;50.906;6.786;2023-02-28T05:22:04;4.50;;;2.63;;
9128;SDS011;4599;50.906;6.786;2023-02-28T05:26:05;4.40;;;2.40;;
9128;SDS011;4599;50.906;6.786;2023-02-28T05:30:07;9.17;;;2.83;;
9128;SDS011;4599;50.906;6.786;2023-02-28T05:34:10;3.73;;;2.60;;
9128;SDS011;4599;50.906;6.786;2023-02-28T05:38:12;4.53;;;2.77;;
9128;SDS011;4599;50.906;6.786;2023-02-28T05:42:13;6.13;;;2.80;;
9128;SDS011;4599;50.906;6.786;2023-02-28T05:46:15;7.07;;;3.00;;
9128;SDS011;4599;50.906;6.786;2023-02-28T05:50:18;5.67;;;2.93;;
9128;SDS011;4599;50.906;6.786;2023-02-28T05:54:19;6.33;;;2.70;;
9128;SDS011;4599;50.906;6.786;2023-02-28T05:58:21;2.50;;;2.23;;
9128;SDS011;4599;50.906;6.786;2023-02-28T06:02:22;3.23;;;2.27;;
9128;SDS011;4599;50.906;6.786;2023-02-28T06:06:25;3.00;;;2.40;;
9128;SDS011;4599;50.906;6.786;2023-02-28T06:10:27;2.87;;;2.10;;
9128;SDS011;4599;50.906;6.786;2023-02-28T06:14:28;3.53;;;2.23;;
9128;SDS011;4599;50.906;6.786;2023-02-28T06:18:30;3.77;;;2.07;;
9128;SDS011;4599;50.906;6.786;2023-02-28T06:22:33;3.90;;;2.30;;
9128;SDS011;4599;50.906;6.786;2023-02-28T06:26:34;4.80;;;2.33;;
9128;SDS011;4599;50.906;6.786;2023-02-28T06:30:36;4.07;;;2.40;;
9128;SDS011;4599;50.906;6.786;2023-02-28T06:34:37;4.83;;;2.60;;
9128;SDS011;4599;50.906;6.786;2023-02-28T06:38:42;5.27;;;2.13;;
9128;SDS011;4599;50.906;6.786;2023-02-28T06:42:44;4.40;;;2.50;;
9128;SDS011;4599;50.906;6.786;2023-02-28T06:46:45;3.63;;;2.10;;
9128;SDS011;4599;50.906;6.786;2023-02-28T06:50:47;3.90;;;2.30;;
9128;SDS011;4599;50.906;6.786;2023-02-28T06:54:50;2.30;;;1.80;;
9128;SDS011;4599;50.906;6.786;2023-02-28T06:58:51;1.70;;;1.60;;
9128;SDS011;4599;50.906;6.786;2023-02-28T07:02:53;1.77;;;1.67;;
9128;SDS011;4599;50.906;6.786;2023-02-28T07:06:55;2.77;;;1.70;;
9128;SDS011;4599;50.906;6.786;2023-02-28T07:10:58;2.33;;;2.00;;
9128;SDS011;4599;50.906;6.786;2023-02-28T07:14:59;2.10;;;1.80;;
9128;SDS011;4599;50.906;6.786;2023-02-28T07:19:03;3.70;;;1.70;;
9128;SDS011;4599;50.906;6.786;2023-02-28T07:23:05;3.53;;;2.03;;
9128;SDS011;4599;50.906;6.786;2023-02-28T07:27:08;4.13;;;1.87;;
9128;SDS011;4599;50.906;6.786;2023-02-28T07:31:10;2.10;;;1.83;;
9128;SDS011;4599;50.906;6.786;2023-02-28T07:35:12;2.73;;;1.87;;
9128;SDS011;4599;50.906;6.786;2023-02-28T07:39:14;2.77;;;1.90;;
9128;SDS011;4599;50.906;6.786;2023-02-28T07:43:16;2.87;;;1.90;;
9128;SDS011;4599;50.906;6.786;2023-02-28T07:47:18;3.90;;;1.80;;
9128;SDS011;4599;50.906;6.786;2023-02-28T07:51:20;2.73;;;1.80;;
9128;SDS011;4599;50.906;6.786;2023-02-28T07:55:23;3.73;;;1.87;;
9128;SDS011;4599;50.906;6.786;2023-02-28T07:59:26;2.30;;;1.40;;
9128;SDS011;4599;50.906;6.786;2023-02-28T08:03:27;2.53;;;1.50;;
9128;SDS011;4599;50.906;6.786;2023-02-28T08:07:29;2.63;;;1.80;;
9128;SDS011;4599;50.906;6.786;2023-02-28T08:11:30;3.40;;;1.63;;
9128;SDS011;4599;50.906;6.786;2023-02-28T08:15:33;7.03;;;1.83;;
9128;SDS011;4599;50.906;6.786;2023-02-28T08:19:35;3.83;;;1.60;;
9128;SDS011;4599;50.906;6.786;2023-02-28T08:23:36;4.90;;;1.73;;
9128;SDS011;4599;50.906;6.786;2023-02-28T08:27:38;3.33;;;1.43;;
9128;SDS011;4599;50.906;6.786;2023-02-28T08:31:41;4.30;;;1.50;;
9128;SDS011;4599;50.906;6.786;2023-02-28T08:35:43;2.93;;;1.60;;
9128;SDS011;4599;50.906;6.786;2023-02-28T08:39:44;4.67;;;1.70;;
9128;SDS011;4599;50.906;6.786;2023-02-28T08:43:46;1.87;;;1.30;;
9128;SDS011;4599;50.906;6.786;2023-02-28T08:47:48;4.17;;;1.60;;
9128;SDS011;4599;50.906;6.786;2023-02-28T08:51:50;4.43;;;1.50;;
9128;SDS011;4599;50.906;6.786;2023-02-28T08:55:58;1.73;;;1.30;;
9128;SDS011;4599;50.906;6.786;2023-02-28T09:00:01;2.27;;;1.23;;
9128;SDS011;4599;50.906;6.786;2023-02-28T09:04:05;1.30;;;1.20;;
9128;SDS011;4599;50.906;6.786;2023-02-28T09:08:06;1.40;;;1.30;;
9128;SDS011;4599;50.906;6.786;2023-02-28T09:12:07;5.97;;;1.30;;
9128;SDS011;4599;50.906;6.786;2023-02-28T09:16:10;1.20;;;1.10;;
9128;SDS011;4599;50.906;6.786;2023-02-28T09:20:14;1.93;;;1.20;;
9128;SDS011;4599;50.906;6.786;2023-02-28T09:24:16;7.97;;;1.53;;
9128;SDS011;4599;50.906;6.786;2023-02-28T09:28:18;1.20;;;1.10;;
9128;SDS011;4599;50.906;6.786;2023-02-28T09:32:20;2.23;;;1.30;;
9128;SDS011;4599;50.906;6.786;2023-02-28T09:36:23;1.80;;;1.20;;
9128;SDS011;4599;50.906;6.786;2023-02-28T09:40:46;1.73;;;1.23;;
9128;SDS011;4599;50.906;6.786;2023-02-28T09:44:50;3.43;;;1.40;;
9128;SDS011;4599;50.906;6.786;2023-02-28T09:48:52;1.73;;;1.10;;
9128;SDS011;4599;50.906;6.786;2023-02-28T09:52:56;1.50;;;1.40;;
9128;SDS011;4599;50.906;6.786;2023-02-28T09:57:00;1.50;;;1.10;;
9128;SDS011;4599;50.906;6.786;2023-02-28T10:01:07;2.90;;;1.30;;
9128;SDS011;4599;50.906;6.786;2023-02-28T10:05:14;1.73;;;1.30;;
9128;SDS011;4599;50.906;6.786;2023-02-28T10:09:19;2.73;;;1.30;;
9128;SDS011;4599;50.906;6.786;2023-02-28T10:13:26;1.90;;;1.47;;
9128;SDS011;4599;50.906;6.786;2023-02-28T10:17:34;2.50;;;1.37;;
9128;SDS011;4599;50.906;6.786;2023-02-28T10:22:00;2.60;;;1.20;;
9128;SDS011;4599;50.906;6.786;2023-02-28T10:26:08;1.67;;;1.37;;
9128;SDS011;4599;50.906;6.786;2023-02-28T10:30:13;1.90;;;1.30;;
9128;SDS011;4599;50.906;6.786;2023-02-28T10:34:15;1.73;;;1.30;;
9128;SDS011;4599;50.906;6.786;2023-02-28T10:38:17;3.23;;;1.80;;
9128;SDS011;4599;50.906;6.786;2023-02-28T10:42:22;1.27;;;1.13;;
9128;SDS011;4599;50.906;6.786;2023-02-28T10:46:33;1.53;;;1.30;;
9128;SDS011;4599;50.906;6.786;2023-02-28T10:50:37;2.20;;;1.70;;
9128;SDS011;4599;50.906;6.786;2023-02-28T10:54:45;3.63;;;1.50;;
9128;SDS011;4599;50.906;6.786;2023-02-28T10:58:50;2.83;;;1.67;;
9128;SDS011;4599;50.906;6.786;2023-02-28T11:02:54;5.57;;;2.53;;
9128;SDS011;4599;50.906;6.786;2023-02-28T11:06:56;1.63;;;1.50;;
9128;SDS011;4599;50.906;6.786;2023-02-28T11:11:00;4.47;;;1.50;;
9128;SDS011;4599;50.906;6.786;2023-02-28T11:15:18;6.90;;;1.63;;
9128;SDS011;4599;50.906;6.786;2023-02-28T11:19:25;1.50;;;1.40;;
9128;SDS011;4599;50.906;6.786;2023-02-28T11:23:30;1.97;;;1.40;;
9128;SDS011;4599;50.906;6.786;2023-02-28T11:27:41;2.20;;;1.70;;
9128;SDS011;4599;50.906;6.786;2023-02-28T11:36:14;4.30;;;1.43;;
9128;SDS011;4599;50.906;6.786;2023-02-28T11:40:23;1.77;;;1.50;;
9128;SDS011;4599;50.906;6.786;2023-02-28T11:44:40;3.37;;;1.67;;
9128;SDS011;4599;50.906;6.786;2023-02-28T11:48:52;1.67;;;1.37;;
9128;SDS011;4599;50.906;6.786;2023-02-28T11:53:01;2.13;;;1.50;;
9128;SDS011;4599;50.906;6.786;2023-02-28T11:57:09;2.80;;;1.50;;
9128;SDS011;4599;50.906;6.786;2023-02-28T12:01:25;1.60;;;1.50;;
9128;SDS011;4599;50.906;6.786;2023-02-28T12:05:39;2.13;;;1.60;;
9128;SDS011;4599;50.906;6.786;2023-02-28T12:09:49;2.50;;;1.67;;
9128;SDS011;4599;50.906;6.786;2023-02-28T12:14:00;3.00;;;1.90;;
9128;SDS011;4599;50.906;6.786;2023-02-28T12:18:26;3.77;;;1.60;;
9128;SDS011;4599;50.906;6.786;2023-02-28T12:22:39;1.90;;;1.50;;
9128;SDS011;4599;50.906;6.786;2023-02-28T12:26:52;2.50;;;1.80;;
9128;SDS011;4599;50.906;6.786;2023-02-28T12:30:57;2.37;;;1.63;;
9128;SDS011;4599;50.906;6.786;2023-02-28T12:35:02;2.13;;;1.70;;
9128;SDS011;4599;50.906;6.786;2023-02-28T12:39:12;1.70;;;1.40;;
9128;SDS011;4599;50.906;6.786;2023-02-28T12:43:20;2.50;;;1.80;;
9128;SDS011;4599;50.906;6.786;2023-02-28T12:47:23;2.17;;;1.80;;
9128;SDS011;4599;50.906;6.786;2023-02-28T12:51:25;2.70;;;1.60;;
9128;SDS011;4599;50.906;6.786;2023-02-28T12:55:29;5.33;;;1.80;;
9128;SDS011;4599;50.906;6.786;2023-02-28T12:59:43;2.30;;;2.10;;
9128;SDS011;4599;50.906;6.786;2023-02-28T13:03:52;3.80;;;1.87;;
9128;SDS011;4599;50.906;6.786;2023-02-28T13:08:12;4.73;;;2.10;;
9128;SDS011;4599;50.906;6.786;2023-02-28T13:12:29;2.50;;;1.80;;
9128;SDS011;4599;50.906;6.786;2023-02-28T13:20:55;3.07;;;1.83;;
9128;SDS011;4599;50.906;6.786;2023-02-28T13:24:57;2.80;;;1.90;;
9128;SDS011;4599;50.906;6.786;2023-02-28T13:28:59;2.23;;;1.90;;
9128;SDS011;4599;50.906;6.786;2023-02-28T13:33:22;2.57;;;1.93;;
9128;SDS011;4599;50.906;6.786;2023-02-28T13:37:33;2.80;;;1.93;;
9128;SDS011;4599;50.906;6.786;2023-02-28T13:41:43;2.53;;;2.10;;
9128;SDS011;4599;50.906;6.786;2023-02-28T13:50:21;1.80;;;1.70;;
9128;SDS011;4599;50.906;6.786;2023-02-28T13:54:31;2.23;;;2.03;;
9128;SDS011;4599;50.906;6.786;2023-02-28T13:58:46;2.30;;;1.90;;
9128;SDS011;4599;50.906;6.786;2023-02-28T14:03:01;2.60;;;1.90;;
9128;SDS011;4599;50.906;6.786;2023-02-28T14:07:26;3.23;;;1.80;;
9128;SDS011;4599;50.906;6.786;2023-02-28T14:11:37;2.53;;;1.90;;
9128;SDS011;4599;50.906;6.786;2023-02-28T14:19:57;4.17;;;2.17;;
9128;SDS011;4599;50.906;6.786;2023-02-28T14:24:08;4.97;;;1.97;;
9128;SDS011;4599;50.906;6.786;2023-02-28T14:28:24;2.33;;;1.97;;
9128;SDS011;4599;50.906;6.786;2023-02-28T14:32:40;2.87;;;2.40;;
9128;SDS011;4599;50.906;6.786;2023-02-28T14:36:48;3.63;;;2.40;;
9128;SDS011;4599;50.906;6.786;2023-02-28T14:40:54;2.57;;;1.87;;
9128;SDS011;4599;50.906;6.786;2023-02-28T14:44:59;4.80;;;2.03;;
9128;SDS011;4599;50.906;6.786;2023-02-28T14:49:00;2.60;;;2.10;;
9128;SDS011;4599;50.906;6.786;2023-02-28T14:53:02;2.43;;;2.23;;
9128;SDS011;4599;50.906;6.786;2023-02-28T14:57:19;3.93;;;2.40;;
9128;SDS011;4599;50.906;6.786;2023-02-28T15:01:24;2.60;;;2.40;;
9128;SDS011;4599;50.906;6.786;2023-02-28T15:05:28;4.03;;;2.00;;
9128;SDS011;4599;50.906;6.786;2023-02-28T15:09:30;2.80;;;2.20;;
9128;SDS011;4599;50.906;6.786;2023-02-28T15:13:34;3.13;;;2.30;;
9128;SDS011;4599;50.906;6.786;2023-02-28T15:17:38;4.50;;;2.30;;
9128;SDS011;4599;50.906;6.786;2023-02-28T15:21:40;3.70;;;2.37;;
9128;SDS011;4599;50.906;6.786;2023-02-28T15:25:45;2.77;;;2.33;;
9128;SDS011;4599;50.906;6.786;2023-02-28T15:29:48;3.80;;;2.00;;
9128;SDS011;4599;50.906;6.786;2023-02-28T15:33:52;2.60;;;2.30;;
9128;SDS011;4599;50.906;6.786;2023-02-28T15:37:55;2.97;;;2.57;;
9128;SDS011;4599;50.906;6.786;2023-02-28T15:42:09;5.57;;;2.60;;
9128;SDS011;4599;50.906;6.786;2023-02-28T15:46:13;2.87;;;2.13;;
9128;SDS011;4599;50.906;6.786;2023-02-28T15:50:16;4.50;;;2.30;;
9128;SDS011;4599;50.906;6.786;2023-02-28T15:54:18;2.33;;;2.10;;
9128;SDS011;4599;50.906;6.786;2023-02-28T15:58:22;4.13;;;2.53;;
9128;SDS011;4599;50.906;6.786;2023-02-28T16:02:31;4.47;;;3.10;;
9128;SDS011;4599;50.906;6.786;2023-02-28T16:06:37;4.77;;;2.23;;
9128;SDS011;4599;50.906;6.786;2023-02-28T16:10:40;4.00;;;2.40;;
9128;SDS011;4599;50.906;6.786;2023-02-28T16:14:42;2.30;;;2.07;;
9128;SDS011;4599;50.906;6.786;2023-02-28T16:18:45;3.67;;;2.43;;
9128;SDS011;4599;50.906;6.786;2023-02-28T16:22:47;4.50;;;3.13;;
9128;SDS011;4599;50.906;6.786;2023-02-28T16:26:49;4.23;;;3.30;;
9128;SDS011;4599;50.906;6.786;2023-02-28T16:30:53;3.77;;;2.60;;
9128;SDS011;4599;50.906;6.786;2023-02-28T16:34:56;2.93;;;2.30;;
9128;SDS011;4599;50.906;6.786;2023-02-28T16:38:58;4.13;;;2.70;;
9128;SDS011;4599;50.906;6.786;2023-02-28T16:42:59;5.70;;;2.70;;
9128;SDS011;4599;50.906;6.786;2023-02-28T16:47:04;3.63;;;2.70;;
9128;SDS011;4599;50.906;6.786;2023-02-28T16:51:07;2.93;;;2.47;;
9128;SDS011;4599;50.906;6.786;2023-02-28T16:55:12;3.23;;;2.13;;
9128;SDS011;4599;50.906;6.786;2023-02-28T16:59:21;2.50;;;2.10;;
9128;SDS011;4599;50.906;6.786;2023-02-28T17:03:24;2.13;;;1.93;;
9128;SDS011;4599;50.906;6.786;2023-02-28T17:07:35;4.00;;;2.40;;
9128;SDS011;4599;50.906;6.786;2023-02-28T17:11:37;3.13;;;2.00;;
9128;SDS011;4599;50.906;6.786;2023-02-28T17:15:38;2.47;;;2.03;;
9128;SDS011;4599;50.906;6.786;2023-02-28T17:19:40;3.60;;;2.70;;
9128;SDS011;4599;50.906;6.786;2023-02-28T17:23:43;5.60;;;3.10;;
9128;SDS011;4599;50.906;6.786;2023-02-28T17:27:45;7.00;;;2.80;;
9128;SDS011;4599;50.906;6.786;2023-02-28T17:31:47;3.43;;;2.20;;
9128;SDS011;4599;50.906;6.786;2023-02-28T17:35:48;3.53;;;2.17;;
9128;SDS011;4599;50.906;6.786;2023-02-28T17:39:51;3.90;;;2.40;;
9128;SDS011;4599;50.906;6.786;2023-02-28T17:43:53;3.00;;;2.20;;
9128;SDS011;4599;50.906;6.786;2023-02-28T17:47:54;3.27;;;2.30;;
9128;SDS011;4599;50.906;6.786;2023-02-28T17:51:55;2.33;;;1.90;;
9128;SDS011;4599;50.906;6.786;2023-02-28T17:55:58;3.73;;;2.20;;
9128;SDS011;4599;50.906;6.786;2023-02-28T18:00:00;4.83;;;2.60;;
9128;SDS011;4599;50.906;6.786;2023-02-28T18:04:04;3.57;;;2.50;;
9128;SDS011;4599;50.906;6.786;2023-02-28T18:08:05;4.20;;;2.33;;
9128;SDS011;4599;50.906;6.786;2023-02-28T18:12:08;3.50;;;2.37;;
9128;SDS011;4599;50.906;6.786;2023-02-28T18:16:10;3.43;;;2.33;;
9128;SDS011;4599;50.906;6.786;2023-02-28T18:20:11;3.93;;;2.73;;
9128;SDS011;4599;50.906;6.786;2023-02-28T18:24:13;5.63;;;3.00;;
9128;SDS011;4599;50.906;6.786;2023-02-28T18:28:17;6.17;;;2.97;;
9128;SDS011;4599;50.906;6.786;2023-02-28T18:32:18;3.13;;;2.67;;
9128;SDS011;4599;50.906;6.786;2023-02-28T18:36:20;5.80;;;3.40;;
9128;SDS011;4599;50.906;6.786;2023-02-28T18:40:23;7.90;;;4.10;;
9128;SDS011;4599;50.906;6.786;2023-02-28T18:44:26;10.90;;;6.40;;
9128;SDS011;4599;50.906;6.786;2023-02-28T18:48:27;12.93;;;6.90;;
9128;SDS011;4599;50.906;6.786;2023-02-28T18:52:29;14.07;;;7.27;;
9128;SDS011;4599;50.906;6.786;2023-02-28T18:56:30;8.57;;;4.60;;
9128;SDS011;4599;50.906;6.786;2023-02-28T19:00:34;6.37;;;3.20;;
9128;SDS011;4599;50.906;6.786;2023-02-28T19:04:39;6.03;;;3.20;;
9128;SDS011;4599;50.906;6.786;2023-02-28T19:08:41;6.80;;;3.10;;
9128;SDS011;4599;50.906;6.786;2023-02-28T19:12:42;6.23;;;3.13;;
9128;SDS011;4599;50.906;6.786;2023-02-28T19:16:45;4.90;;;3.10;;
9128;SDS011;4599;50.906;6.786;2023-02-28T19:20:46;4.43;;;2.73;;
9128;SDS011;4599;50.906;6.786;2023-02-28T19:24:48;5.50;;;3.43;;
9128;SDS011;4599;50.906;6.786;2023-02-28T19:28:52;6.83;;;4.43;;
9128;SDS011;4599;50.906;6.786;2023-02-28T19:32:55;9.37;;;5.03;;
9128;SDS011;4599;50.906;6.786;2023-02-28T19:36:56;9.77;;;5.57;;
9128;SDS011;4599;50.906;6.786;2023-02-28T19:40:58;8.70;;;4.70;;
9128;SDS011;4599;50.906;6.786;2023-02-28T19:45:00;5.20;;;4.03;;
9128;SDS011;4599;50.906;6.786;2023-02-28T19:49:04;5.30;;;3.80;;
9128;SDS011;4599;50.906;6.786;2023-02-28T19:53:05;7.03;;;4.07;;
9128;SDS011;4599;50.906;6.786;2023-02-28T19:57:07;4.17;;;3.53;;
9128;SDS011;4599;50.906;6.786;2023-02-28T20:01:09;5.07;;;3.67;;
9128;SDS011;4599;50.906;6.786;2023-02-28T20:05:13;6.73;;;4.03;;
9128;SDS011;4599;50.906;6.786;2023-02-28T20:09:14;5.60;;;4.23;;
9128;SDS011;4599;50.906;6.786;2023-02-28T20:13:16;6.07;;;4.10;;
9128;SDS011;4599;50.906;6.786;2023-02-28T20:17:18;5.60;;;4.10;;
9128;SDS011;4599;50.906;6.786;2023-02-28T20:21:21;7.27;;;4.40;;
9128;SDS011;4599;50.906;6.786;2023-02-28T20:25:23;9.33;;;5.07;;
9128;SDS011;4599;50.906;6.786;2023-02-28T20:29:24;7.23;;;4.63;;
9128;SDS011;4599;50.906;6.786;2023-02-28T20:33:28;7.07;;;5.37;;
9128;SDS011;4599;50.906;6.786;2023-02-28T20:37:31;8.97;;;5.33;;
9128;SDS011;4599;50.906;6.786;2023-02-28T20:41:32;7.13;;;5.33;;
9128;SDS011;4599;50.906;6.786;2023-02-28T20:45:34;6.00;;;4.90;;
9128;SDS011;4599;50.906;6.786;2023-02-28T20:49:35;6.83;;;4.57;;
9128;SDS011;4599;50.906;6.786;2023-02-28T20:53:38;7.30;;;4.47;;
9128;SDS011;4599;50.906;6.786;2023-02-28T20:57:39;6.33;;;4.03;;
9128;SDS011;4599;50.906;6.786;2023-02-28T21:01:41;5.83;;;4.30;;
9128;SDS011;4599;50.906;6.786;2023-02-28T21:05:42;9.20;;;4.00;;
9128;SDS011;4599;50.906;6.786;2023-02-28T21:09:45;6.77;;;4.80;;
9128;SDS011;4599;50.906;6.786;2023-02-28T21:13:47;6.37;;;4.30;;
9128;SDS011;4599;50.906;6.786;2023-02-28T21:17:48;5.80;;;4.37;;
9128;SDS011;4599;50.906;6.786;2023-02-28T21:21:50;6.33;;;4.60;;
9128;SDS011;4599;50.906;6.786;2023-02-28T21:25:52;9.77;;;4.97;;
9128;SDS011;4599;50.906;6.786;2023-02-28T21:29:54;9.07;;;6.33;;
9128;SDS011;4599;50.906;6.786;2023-02-28T21:33:56;9.03;;;6.30;;
9128;SDS011;4599;50.906;6.786;2023-02-28T21:37:58;10.17;;;6.00;;
9128;SDS011;4599;50.906;6.786;2023-02-28T21:42:01;8.43;;;5.50;;
9128;SDS011;4599;50.906;6.786;2023-02-28T21:46:03;7.50;;;4.77;;
9128;SDS011;4599;50.906;6.786;2023-02-28T21:50:06;10.83;;;5.80;;
9128;SDS011;4599;50.906;6.786;2023-02-28T21:54:09;6.37;;;4.50;;
9128;SDS011;4599;50.906;6.786;2023-02-28T21:58:12;7.43;;;5.00;;
9128;SDS011;4599;50.906;6.786;2023-02-28T22:02:14;8.50;;;4.20;;
9128;SDS011;4599;50.906;6.786;2023-02-28T22:06:16;7.10;;;4.67;;
9128;SDS011;4599;50.906;6.786;2023-02-28T22:10:18;6.60;;;4.43;;
9128;SDS011;4599;50.906;6.786;2023-02-28T22:14:21;6.67;;;4.83;;
9128;SDS011;4599;50.906;6.786;2023-02-28T22:18:23;7.87;;;5.17;;
9128;SDS011;4599;50.906;6.786;2023-02-28T22:22:24;7.17;;;5.10;;
9128;SDS011;4599;50.906;6.786;2023-02-28T22:26:26;6.73;;;5.03;;
9128;SDS011;4599;50.906;6.786;2023-02-28T22:30:29;5.90;;;4.20;;
9128;SDS011;4599;50.906;6.786;2023-02-28T22:34:30;6.40;;;4.50;;
9128;SDS011;4599;50.906;6.786;2023-02-28T22:38:32;6.43;;;4.80;;
9128;SDS011;4599;50.906;6.786;2023-02-28T22:42:33;8.37;;;5.53;;
9128;SDS011;4599;50.906;6.786;2023-02-28T22:46:36;7.87;;;5.07;;
9128;SDS011;4599;50.906;6.786;2023-02-28T22:50:37;8.37;;;4.83;;
9128;SDS011;4599;50.906;6.786;2023-02-28T22:54:39;8.27;;;4.87;;
9128;SDS011;4599;50.906;6.786;2023-02-28T22:58:41;6.97;;;4.87;;
9128;SDS011;4599;50.906;6.786;2023-02-28T23:02:46;8.37;;;5.37;;
9128;SDS011;4599;50.906;6.786;2023-02-28T23:06:48;7.93;;;5.70;;
9128;SDS011;4599;50.906;6.786;2023-02-28T23:10:49;9.33;;;6.10;;
9128;SDS011;4599;50.906;6.786;2023-02-28T23:14:51;10.23;;;7.17;;
9128;SDS011;4599;50.906;6.786;2023-02-28T23:18:54;10.93;;;6.53;;
9128;SDS011;4599;50.906;6.786;2023-02-28T23:22:57;11.23;;;6.97;;
9128;SDS011;4599;50.906;6.786;2023-02-28T23:26:59;15.40;;;8.07;;
9128;SDS011;4599;50.906;6.786;2023-02-28T23:31:02;10.30;;;7.10;;
9128;SDS011;4599;50.906;6.786;2023-02-28T23:35:06;12.03;;;6.63;;
9128;SDS011;4599;50.906;6.786;2023-02-28T23:39:09;9.37;;;6.70;;
9128;SDS011;4599;50.906;6.786;2023-02-28T23:43:11;9.63;;;6.37;;
9128;SDS011;4599;50.906;6.786;2023-02-28T23:47:13;7.97;;;5.73;;
9128;SDS011;4599;50.906;6.786;2023-02-28T23:51:17;9.83;;;5.80;;
9128;SDS011;4599;50.906;6.786;2023-02-28T23:55:20;10.00;;;6.00;;
9128;SDS011;4599;50.906;6.786;2023-02-28T23:59:22;9.83;;;6.00;;
